Time;durP1;ratioP1;P1;durP2;ratioP2;P2;SDS_P1;SDS_P2;PMS_P1;PMS_P2;Temp;Humidity;BMP_temperature;BMP_pressure;BME280_temperature;BME280_humidity;BME280_pressure;Samples;Min_cycle;Max_cycle;Signal;HPM_P1;HPM_P2
2023/09/11 00:03:20;;;;;;;4.10;3.30;;;32.70;63.80;;;;;;10454124;28;20052;-36
2023/09/11 00:08:22;;;;;;;5.75;3.63;;;32.70;63.90;;;;;;10452159;28;20092;-37
2023/09/11 00:13:26;;;;;;;5.60;3.40;;;32.70;63.90;;;;;;10454157;28;20079;-36
2023/09/11 00:18:28;;;;;;;5.90;3.60;;;32.70;64.00;;;;;;10452792;28;20432;-34
2023/09/11 00:23:29;;;;;;;4.43;3.85;;;32.70;64.00;;;;;;10472794;28;20048;-38
2023/09/11 00:28:33;;;;;;;5.60;3.88;;;32.60;63.90;;;;;;10449376;28;20112;-32
2023/09/11 00:33:35;;;;;;;4.78;3.58;;;32.60;64.00;;;;;;10451441;28;20047;-33
2023/09/11 00:38:36;;;;;;;7.65;3.78;;;32.50;64.00;;;;;;10452331;28;20405;-31
2023/09/11 00:43:40;;;;;;;4.07;3.50;;;32.50;64.10;;;;;;10455994;28;20541;-34
2023/09/11 00:48:42;;;;;;;6.15;3.67;;;32.50;64.10;;;;;;10450002;28;20102;-31
2023/09/11 00:53:44;;;;;;;5.90;3.45;;;32.50;64.30;;;;;;10452577;28;20052;-41
2023/09/11 00:58:48;;;;;;;5.13;3.65;;;32.50;64.20;;;;;;10453456;28;20076;-31
2023/09/11 01:03:50;;;;;;;7.55;4.32;;;32.40;64.30;;;;;;10447454;28;20049;-37
2023/09/11 01:08:55;;;;;;;5.45;3.33;;;32.40;64.30;;;;;;10453889;28;20144;-37
2023/09/11 01:13:58;;;;;;;5.18;3.70;;;32.30;64.30;;;;;;10439827;28;20159;-33
2023/09/11 01:19:08;;;;;;;5.93;4.00;;;32.30;64.40;;;;;;10463068;28;20052;-31
2023/09/11 01:24:42;;;;;;;4.17;3.67;;;32.30;64.50;;;;;;10449252;28;20049;-34
2023/09/11 01:29:46;;;;;;;9.02;4.07;;;32.30;64.60;;;;;;10449623;28;20141;-35
2023/09/11 01:34:48;;;;;;;8.55;3.80;;;32.20;64.50;;;;;;10443900;28;20068;-37
2023/09/11 01:39:51;;;;;;;5.53;3.83;;;32.20;64.60;;;;;;10450144;28;20148;-36
2023/09/11 01:44:56;;;;;;;6.03;4.15;;;32.10;64.60;;;;;;10446295;28;20079;-38
2023/09/11 01:49:59;;;;;;;5.18;3.83;;;32.10;64.70;;;;;;10447535;28;20057;-37
2023/09/11 01:55:02;;;;;;;11.13;4.72;;;32.10;64.70;;;;;;10448200;28;20105;-33
2023/09/11 02:00:07;;;;;;;5.93;4.00;;;32.10;64.70;;;;;;10451679;28;20048;-33
2023/09/11 02:05:09;;;;;;;4.13;3.72;;;32.10;64.80;;;;;;10447246;28;20095;-35
2023/09/11 02:10:11;;;;;;;5.53;4.05;;;32.00;64.80;;;;;;10458350;28;20084;-33
2023/09/11 02:15:15;;;;;;;5.00;4.07;;;32.00;64.90;;;;;;10440101;28;20049;-32
2023/09/11 02:20:17;;;;;;;7.63;4.05;;;31.90;64.90;;;;;;10441333;28;20114;-39
2023/09/11 02:25:18;;;;;;;6.60;4.40;;;31.90;64.90;;;;;;10455540;28;20072;-34
2023/09/11 02:30:22;;;;;;;7.65;4.10;;;31.90;65.00;;;;;;10449060;28;20087;-32
2023/09/11 02:35:24;;;;;;;6.47;4.53;;;31.90;65.00;;;;;;10447836;28;20379;-35
2023/09/11 02:40:26;;;;;;;7.68;4.45;;;31.90;65.00;;;;;;10452933;28;20073;-34
2023/09/11 02:45:29;;;;;;;6.95;4.45;;;31.90;65.10;;;;;;10448023;28;20456;-35
2023/09/11 02:50:31;;;;;;;5.45;4.15;;;31.80;65.20;;;;;;10446899;28;20068;-32
2023/09/11 02:55:33;;;;;;;4.63;4.13;;;31.70;65.20;;;;;;10448933;28;20496;-36
2023/09/11 03:15:31;;;;;;;6.07;4.63;;;31.50;65.10;;;;;;10564975;27;20109;-34
2023/09/11 03:20:34;;;;;;;5.30;4.25;;;31.60;65.80;;;;;;10551944;28;20073;-39
2023/09/11 03:25:37;;;;;;;6.53;4.13;;;31.50;65.50;;;;;;10544453;28;20078;-38
2023/09/11 03:30:40;;;;;;;6.20;4.15;;;31.60;65.60;;;;;;10533980;28;20081;-33
2023/09/11 03:35:42;;;;;;;6.05;4.72;;;31.50;65.60;;;;;;10556285;28;20401;-31
2023/09/11 03:40:46;;;;;;;5.05;4.32;;;31.50;65.60;;;;;;10522926;28;20542;-34
2023/09/11 03:45:49;;;;;;;4.82;3.90;;;31.50;65.60;;;;;;10528081;28;20484;-32
2023/09/11 03:50:51;;;;;;;5.90;4.13;;;31.50;65.70;;;;;;10534979;28;20131;-34
2023/09/11 03:55:53;;;;;;;7.35;4.13;;;31.50;65.70;;;;;;10535183;28;20071;-33
2023/09/11 04:00:56;;;;;;;8.30;4.57;;;31.40;65.60;;;;;;10521492;28;20080;-35
2023/09/11 04:05:58;;;;;;;4.60;4.10;;;31.40;65.60;;;;;;10524719;28;20534;-38
2023/09/11 04:11:01;;;;;;;5.50;4.00;;;31.40;65.60;;;;;;10519676;28;20568;-32
2023/09/11 04:16:05;;;;;;;7.88;4.53;;;31.40;65.60;;;;;;10527145;28;20126;-31
2023/09/11 04:21:06;;;;;;;7.07;4.60;;;31.30;65.60;;;;;;10521719;28;20090;-31
2023/09/11 04:26:08;;;;;;;9.07;4.63;;;31.30;65.60;;;;;;10514237;28;20636;-36
2023/09/11 04:31:11;;;;;;;12.35;4.30;;;31.30;65.60;;;;;;10499333;28;20102;-46
2023/09/11 04:36:13;;;;;;;8.00;4.72;;;31.30;65.50;;;;;;10500826;28;20057;-35
2023/09/11 04:41:16;;;;;;;5.18;4.22;;;31.30;65.50;;;;;;10486941;28;20131;-38
2023/09/11 04:46:19;;;;;;;7.38;4.25;;;31.20;65.40;;;;;;10495870;28;20062;-40
2023/09/11 04:51:21;;;;;;;4.88;4.10;;;31.20;65.40;;;;;;10498811;28;20127;-31
2023/09/11 04:56:23;;;;;;;6.95;4.30;;;31.20;65.40;;;;;;10498387;28;20152;-33
2023/09/11 05:01:26;;;;;;;5.95;4.15;;;31.20;65.40;;;;;;10477058;28;20062;-32
2023/09/11 05:06:28;;;;;;;8.52;4.30;;;31.20;65.40;;;;;;10499490;28;20477;-34
2023/09/11 05:11:30;;;;;;;6.20;5.03;;;31.20;65.30;;;;;;10495014;28;20477;-33
2023/09/11 05:16:33;;;;;;;7.00;4.10;;;31.10;65.20;;;;;;10492027;28;20091;-33
2023/09/11 05:21:36;;;;;;;5.47;4.22;;;31.10;65.20;;;;;;10489441;28;20049;-32
2023/09/11 05:26:38;;;;;;;6.20;4.03;;;31.00;65.30;;;;;;10498304;28;20036;-33
2023/09/11 05:31:42;;;;;;;7.00;4.03;;;31.00;65.30;;;;;;10488772;28;20040;-38
2023/09/11 05:36:43;;;;;;;7.75;3.90;;;31.00;65.30;;;;;;10489332;28;20087;-40
2023/09/11 05:41:45;;;;;;;4.05;3.65;;;31.00;65.10;;;;;;10503914;28;20161;-36
2023/09/11 05:46:49;;;;;;;8.68;4.20;;;30.90;64.80;;;;;;10498461;28;20482;-32
2023/09/11 05:51:51;;;;;;;4.80;3.35;;;30.90;64.70;;;;;;10497600;28;20513;-31
2023/09/11 05:56:53;;;;;;;7.60;4.10;;;30.80;64.50;;;;;;10484787;28;20545;-31
2023/09/11 06:01:56;;;;;;;7.25;3.70;;;30.80;64.30;;;;;;10493230;28;20051;-32
2023/09/11 06:06:58;;;;;;;4.93;3.58;;;30.90;63.90;;;;;;10498977;28;20049;-37
2023/09/11 06:12:00;;;;;;;4.68;2.83;;;30.80;63.90;;;;;;10494910;28;20148;-32
2023/09/11 06:17:03;;;;;;;4.07;2.85;;;30.80;63.60;;;;;;10490771;28;20083;-32
2023/09/11 06:22:05;;;;;;;9.27;4.40;;;30.80;63.30;;;;;;10489328;28;20098;-33
2023/09/11 06:27:08;;;;;;;11.90;7.68;;;30.30;65.10;;;;;;10488286;28;20131;-34
2023/09/11 06:32:14;;;;;;;6.50;4.78;;;30.10;65.30;;;;;;10494394;28;20154;-32
2023/09/11 06:37:16;;;;;;;26.20;17.27;;;29.60;67.20;;;;;;10500276;28;20049;-36
2023/09/11 06:42:21;;;;;;;4.93;4.30;;;29.50;67.80;;;;;;10492212;28;20151;-37
2023/09/11 06:47:24;;;;;;;27.60;20.48;;;29.30;69.90;;;;;;10518065;28;20652;-32
2023/09/11 06:52:26;;;;;;;21.85;12.63;;;27.80;77.30;;;;;;10480249;28;20052;-30
2023/09/11 06:57:28;;;;;;;7.38;4.15;;;29.00;72.90;;;;;;10498422;28;20127;-33
2023/09/11 07:02:31;;;;;;;11.75;8.20;;;29.50;69.20;;;;;;10483790;28;20040;-33
2023/09/11 07:07:32;;;;;;;23.80;12.30;;;28.20;76.00;;;;;;10490810;28;20190;-33
2023/09/11 07:12:34;;;;;;;7.25;3.78;;;27.90;77.40;;;;;;10498771;28;20076;-33
2023/09/11 07:17:37;;;;;;;18.75;13.27;;;28.90;71.80;;;;;;10501545;28;20098;-41
2023/09/11 07:22:39;;;;;;;14.88;8.25;;;28.50;73.40;;;;;;10505466;28;20492;-37
2023/09/11 07:27:41;;;;;;;12.65;7.43;;;27.90;77.80;;;;;;10499393;28;20564;-35
2023/09/11 07:32:44;;;;;;;6.15;3.95;;;28.00;76.30;;;;;;10476895;28;20057;-34
2023/09/11 07:37:48;;;;;;;7.15;5.35;;;28.40;74.90;;;;;;10492553;28;20155;-33
2023/09/11 07:42:50;;;;;;;15.50;6.13;;;28.70;71.60;;;;;;10487354;28;20051;-35
2023/09/11 07:47:54;;;;;;;13.45;6.85;;;29.20;69.50;;;;;;10493770;28;20079;-32
2023/09/11 07:52:56;;;;;;;8.68;4.35;;;27.90;74.00;;;;;;10489847;28;20409;-33
2023/09/11 07:57:57;;;;;;;8.40;4.30;;;26.20;85.10;;;;;;10489564;28;20056;-32
2023/09/11 08:03:01;;;;;;;13.88;6.20;;;27.10;81.90;;;;;;10495349;28;20083;-39
2023/09/11 08:08:02;;;;;;;8.57;4.30;;;27.10;80.20;;;;;;10496653;28;20048;-38
2023/09/11 08:13:05;;;;;;;11.20;5.65;;;27.20;81.40;;;;;;10513196;28;20143;-34
2023/09/11 08:18:08;;;;;;;4.55;3.25;;;27.70;76.70;;;;;;10496191;28;20101;-32
2023/09/11 08:23:10;;;;;;;5.90;4.13;;;27.80;79.00;;;;;;10499131;28;20048;-36
2023/09/11 08:28:11;;;;;;;6.55;3.10;;;28.20;75.60;;;;;;10514182;28;20147;-36
2023/09/11 08:33:15;;;;;;;16.40;5.93;;;27.90;78.40;;;;;;10498620;28;20139;-38
2023/09/11 08:38:17;;;;;;;13.15;4.75;;;26.90;83.50;;;;;;10499001;28;20068;-39
2023/09/11 08:43:22;;;;;;;4.28;3.50;;;27.30;80.30;;;;;;10491931;28;20123;-39
2023/09/11 08:48:30;;;;;;;8.10;4.32;;;26.60;86.30;;;;;;10493732;28;20073;-36
2023/09/11 08:53:36;;;;;;;13.25;6.00;;;27.50;80.60;;;;;;10496804;28;20045;-32
2023/09/11 08:58:40;;;;;;;4.38;3.15;;;26.80;85.90;;;;;;10504311;28;20178;-41
2023/09/11 09:03:43;;;;;;;13.32;5.95;;;27.60;81.70;;;;;;10493054;28;20072;-34
2023/09/11 09:08:46;;;;;;;13.45;5.90;;;26.10;90.00;;;;;;10495286;28;20157;-34
2023/09/11 09:13:49;;;;;;;17.65;7.43;;;26.40;90.60;;;;;;10491250;28;20143;-38
2023/09/11 09:18:52;;;;;;;20.67;9.63;;;26.00;90.60;;;;;;10487536;28;20045;-32
2023/09/11 09:23:54;;;;;;;17.88;6.15;;;25.40;92.70;;;;;;10494254;28;20056;-34
2023/09/11 09:28:57;;;;;;;14.85;7.20;;;25.60;92.50;;;;;;10491882;28;20140;-33
2023/09/11 09:34:00;;;;;;;18.90;8.38;;;26.90;86.60;;;;;;10491764;28;20057;-33
2023/09/11 09:39:02;;;;;;;15.93;6.63;;;26.10;91.70;;;;;;10502584;28;20060;-30
2023/09/11 09:44:04;;;;;;;18.08;9.52;;;27.20;86.70;;;;;;10493645;28;20060;-38
2023/09/11 09:49:10;;;;;;;19.52;8.73;;;26.50;91.00;;;;;;10504618;28;20127;-36
2023/09/11 09:54:11;;;;;;;21.83;9.95;;;25.50;93.50;;;;;;10495307;28;20448;-37
2023/09/11 09:59:22;;;;;;;24.23;9.75;;;25.00;95.70;;;;;;10494402;28;20051;-35
2023/09/11 10:04:26;;;;;;;10.23;4.70;;;25.10;95.90;;;;;;10502997;28;20072;-39
2023/09/11 10:09:28;;;;;;;9.88;4.70;;;26.20;93.10;;;;;;10491971;28;20357;-37
2023/09/11 10:14:31;;;;;;;10.43;5.93;;;28.50;80.50;;;;;;10487792;28;20135;-32
2023/09/11 10:19:35;;;;;;;14.90;8.05;;;26.60;90.60;;;;;;10505081;28;20045;-33
2023/09/11 10:24:37;;;;;;;9.98;4.68;;;26.80;91.70;;;;;;10494558;28;20736;-40
2023/09/11 10:29:49;;;;;;;18.60;9.48;;;27.20;90.40;;;;;;10497503;28;20103;-40
2023/09/11 10:34:53;;;;;;;36.67;20.38;;;27.10;89.30;;;;;;10491236;28;20500;-37
2023/09/11 10:39:56;;;;;;;21.27;11.52;;;26.30;92.60;;;;;;10494581;28;20489;-34
2023/09/11 10:44:58;;;;;;;17.20;8.57;;;25.50;94.30;;;;;;10511335;28;20485;-36
2023/09/11 10:50:01;;;;;;;6.68;4.78;;;27.60;85.80;;;;;;10502342;28;20068;-32
2023/09/11 10:55:04;;;;;;;15.05;7.82;;;28.20;80.30;;;;;;10477665;28;20139;-35
2023/09/11 11:00:09;;;;;;;28.80;15.73;;;28.30;82.10;;;;;;10496969;28;20105;-41
2023/09/11 11:05:15;;;;;;;22.20;12.70;;;25.90;92.70;;;;;;10490222;28;20044;-34
2023/09/11 11:10:18;;;;;;;40.15;19.80;;;27.90;81.50;;;;;;10490643;28;20049;-37
2023/09/11 11:15:21;;;;;;;12.48;6.82;;;26.20;91.40;;;;;;10487794;28;20094;-33
2023/09/11 11:20:27;;;;;;;9.60;6.47;;;27.60;88.00;;;;;;10487985;28;20663;-35
2023/09/11 11:25:29;;;;;;;15.88;10.70;;;28.30;79.90;;;;;;10495901;28;20066;-38
2023/09/11 11:30:35;;;;;;;23.48;12.48;;;28.50;77.30;;;;;;10486181;28;20481;-35
2023/09/11 11:35:38;;;;;;;14.60;9.10;;;27.30;83.20;;;;;;10491523;28;20126;-31
2023/09/11 11:40:41;;;;;;;17.73;9.07;;;28.30;80.10;;;;;;10487299;28;20047;-37
2023/09/11 11:45:44;;;;;;;28.48;15.98;;;28.70;75.80;;;;;;10513173;28;20087;-34
2023/09/11 11:50:49;;;;;;;13.93;7.70;;;28.40;73.40;;;;;;10499594;28;20128;-33
2023/09/11 11:55:52;;;;;;;11.07;6.00;;;29.50;72.20;;;;;;10506357;28;20094;-34
2023/09/11 12:00:59;;;;;;;11.77;6.70;;;29.50;72.80;;;;;;10518578;28;20511;-32
2023/09/11 12:06:03;;;;;;;13.93;8.27;;;29.10;75.60;;;;;;10513264;28;20056;-32
2023/09/11 12:11:08;;;;;;;9.52;6.95;;;28.40;77.70;;;;;;10512478;28;20421;-31
2023/09/11 12:16:10;;;;;;;9.48;6.32;;;30.20;67.70;;;;;;10510293;28;20157;-41
2023/09/11 12:21:13;;;;;;;10.70;8.15;;;29.00;75.40;;;;;;10494550;28;20049;-36
2023/09/11 12:26:15;;;;;;;9.10;6.18;;;29.80;70.20;;;;;;10492556;28;20555;-33
2023/09/11 12:31:19;;;;;;;16.35;8.60;;;29.20;75.40;;;;;;10517293;28;20445;-28
2023/09/11 12:36:22;;;;;;;16.67;9.40;;;28.80;70.60;;;;;;10493257;28;20139;-37
2023/09/11 12:41:26;;;;;;;11.13;8.10;;;27.60;83.70;;;;;;10492437;28;20130;-37
2023/09/11 12:46:28;;;;;;;17.08;10.35;;;28.80;75.50;;;;;;10512675;28;20058;-31
2023/09/11 12:51:33;;;;;;;7.70;6.13;;;28.60;72.80;;;;;;10496822;28;20056;-37
2023/09/11 12:56:35;;;;;;;11.90;6.85;;;30.20;69.90;;;;;;10507348;28;20485;-39
2023/09/11 13:01:36;;;;;;;16.00;9.45;;;29.40;72.30;;;;;;10501282;28;20477;-39
2023/09/11 13:06:40;;;;;;;17.77;11.85;;;30.40;65.80;;;;;;10493562;28;20155;-38
2023/09/11 13:11:41;;;;;;;13.13;7.68;;;29.60;69.20;;;;;;10503357;28;20075;-36
2023/09/11 13:16:44;;;;;;;14.02;7.53;;;28.80;74.50;;;;;;10492081;28;20691;-34
2023/09/11 13:21:47;;;;;;;10.57;6.07;;;30.30;67.10;;;;;;10504285;28;20131;-35
2023/09/11 13:26:49;;;;;;;10.52;6.30;;;29.30;73.20;;;;;;10504139;28;20057;-37
2023/09/11 13:31:51;;;;;;;16.55;11.77;;;30.10;68.80;;;;;;10498874;28;20429;-33
2023/09/11 13:36:58;;;;;;;14.52;7.68;;;29.30;68.20;;;;;;10492768;28;20145;-33
2023/09/11 13:41:59;;;;;;;12.13;7.60;;;29.40;71.60;;;;;;10498340;28;20068;-33
2023/09/11 13:47:01;;;;;;;28.52;10.02;;;30.00;68.40;;;;;;10499850;28;20485;-35
2023/09/11 13:52:05;;;;;;;16.20;10.60;;;29.90;66.40;;;;;;10491495;28;20501;-37
2023/09/11 13:57:07;;;;;;;9.98;6.53;;;29.70;67.30;;;;;;10494150;28;20145;-32
2023/09/11 14:02:09;;;;;;;10.93;6.38;;;29.20;71.00;;;;;;10503150;28;20076;-36
2023/09/11 14:07:13;;;;;;;10.35;6.00;;;29.90;67.20;;;;;;10494116;28;20072;-33
2023/09/11 14:12:16;;;;;;;16.48;11.15;;;30.90;65.20;;;;;;10495420;28;20173;-30
2023/09/11 14:17:18;;;;;;;11.85;6.57;;;30.20;64.10;;;;;;10513427;28;20154;-38
2023/09/11 14:22:21;;;;;;;11.15;6.32;;;31.00;64.30;;;;;;10506591;28;20147;-31
2023/09/11 14:27:23;;;;;;;18.08;10.05;;;29.90;67.10;;;;;;10499579;28;20151;-35
2023/09/11 14:32:25;;;;;;;13.25;7.53;;;29.80;65.90;;;;;;10493573;28;20052;-32
2023/09/11 14:37:28;;;;;;;8.40;6.28;;;30.50;66.10;;;;;;10495445;28;20128;-36
2023/09/11 14:42:32;;;;;;;15.20;10.10;;;30.20;66.20;;;;;;10497870;28;20143;-34
2023/09/11 14:47:34;;;;;;;9.45;6.70;;;29.50;68.00;;;;;;10485715;28;20052;-34
2023/09/11 14:52:37;;;;;;;14.38;8.43;;;30.30;66.80;;;;;;10502847;28;20072;-32
2023/09/11 14:57:39;;;;;;;24.25;13.73;;;30.30;66.00;;;;;;10495726;28;20080;-37
2023/09/11 15:02:41;;;;;;;18.05;10.60;;;27.30;74.30;;;;;;10506038;28;20063;-37
2023/09/11 15:07:44;;;;;;;8.98;6.40;;;28.60;73.20;;;;;;10492230;28;20060;-34
2023/09/11 15:12:46;;;;;;;12.40;7.78;;;30.60;66.00;;;;;;10492851;28;20057;-35
2023/09/11 15:17:48;;;;;;;8.00;6.03;;;30.80;64.50;;;;;;10494193;28;20080;-34
2023/09/11 15:22:51;;;;;;;8.30;6.47;;;30.60;65.20;;;;;;10493749;28;20102;-33
2023/09/11 15:27:53;;;;;;;8.13;5.80;;;31.60;62.00;;;;;;10482422;28;20132;-35
2023/09/11 15:32:55;;;;;;;10.90;6.40;;;31.70;61.50;;;;;;10507352;28;20117;-33
2023/09/11 15:37:59;;;;;;;8.93;5.90;;;31.80;61.00;;;;;;10498388;28;20050;-34
2023/09/11 15:43:00;;;;;;;10.63;6.32;;;31.90;61.00;;;;;;10497296;28;20132;-38
2023/09/11 15:48:02;;;;;;;7.47;5.88;;;31.90;61.00;;;;;;10490275;28;20127;-34
2023/09/11 15:53:05;;;;;;;8.40;5.65;;;31.80;61.10;;;;;;10491470;28;20127;-29
2023/09/11 15:58:07;;;;;;;12.38;5.68;;;31.80;61.20;;;;;;10485869;28;20051;-28
2023/09/11 16:03:09;;;;;;;9.07;6.25;;;31.80;61.30;;;;;;10497966;28;20090;-38
2023/09/11 16:08:12;;;;;;;10.50;6.03;;;31.80;61.50;;;;;;10496555;28;20078;-33
2023/09/11 16:13:14;;;;;;;9.20;6.45;;;31.80;61.70;;;;;;10488066;28;20068;-33
2023/09/11 16:18:16;;;;;;;8.60;6.55;;;31.70;61.80;;;;;;10502945;28;20140;-32
2023/09/11 16:23:19;;;;;;;13.48;6.93;;;31.80;62.10;;;;;;10506616;28;20045;-34
2023/09/11 16:28:25;;;;;;;18.25;7.40;;;31.80;62.10;;;;;;10491276;28;20044;-33
2023/09/11 16:33:26;;;;;;;9.35;7.13;;;31.70;62.10;;;;;;10494677;28;20041;-35
2023/09/11 16:38:30;;;;;;;10.32;7.40;;;31.60;62.10;;;;;;10493664;28;20135;-32
2023/09/11 16:43:31;;;;;;;11.55;7.60;;;31.60;62.30;;;;;;10496272;28;20109;-32
2023/09/11 16:48:33;;;;;;;9.60;7.03;;;31.70;62.20;;;;;;10500734;28;20139;-36
2023/09/11 16:53:36;;;;;;;12.55;6.63;;;31.70;62.10;;;;;;10500768;28;20075;-30
2023/09/11 16:58:38;;;;;;;9.02;6.80;;;31.60;62.10;;;;;;10495860;28;20101;-40
2023/09/11 17:03:40;;;;;;;10.35;6.50;;;31.60;62.40;;;;;;10490606;28;20094;-33
2023/09/11 17:08:43;;;;;;;9.38;5.72;;;31.60;62.50;;;;;;10500165;28;20178;-39
2023/09/11 17:13:45;;;;;;;10.00;6.28;;;31.60;62.60;;;;;;10511678;28;20105;-34
2023/09/11 17:18:47;;;;;;;11.48;6.45;;;31.50;62.70;;;;;;10493229;28;20048;-35
2023/09/11 17:23:51;;;;;;;8.48;5.85;;;31.60;62.80;;;;;;10500219;28;20117;-36
2023/09/11 17:28:53;;;;;;;8.40;6.18;;;31.50;62.90;;;;;;10523199;28;20059;-29
2023/09/11 17:33:55;;;;;;;8.10;6.22;;;31.50;63.00;;;;;;10490248;28;20131;-35
2023/09/11 17:38:59;;;;;;;8.00;6.05;;;31.50;63.20;;;;;;10491094;28;20052;-32
2023/09/11 17:44:01;;;;;;;7.15;6.38;;;31.40;63.20;;;;;;10490324;28;20080;-36
2023/09/11 17:49:03;;;;;;;7.35;6.07;;;31.40;63.20;;;;;;10492661;28;20132;-38
2023/09/11 17:54:06;;;;;;;8.85;5.85;;;31.40;63.20;;;;;;10493987;28;20068;-32
2023/09/11 17:59:08;;;;;;;9.07;5.75;;;31.40;63.00;;;;;;10497953;28;20072;-37
2023/09/11 18:04:10;;;;;;;8.88;5.68;;;31.40;62.90;;;;;;10492361;28;20063;-36
2023/09/11 18:09:13;;;;;;;6.80;5.60;;;31.30;63.00;;;;;;10492456;28;20040;-36
2023/09/11 18:14:15;;;;;;;8.73;5.80;;;31.30;63.20;;;;;;10491940;28;20044;-38
2023/09/11 18:19:17;;;;;;;8.35;5.72;;;31.30;63.40;;;;;;10511991;28;20443;-36
2023/09/11 18:24:21;;;;;;;6.93;5.57;;;31.30;63.60;;;;;;10508547;28;20051;-38
2023/09/11 18:29:26;;;;;;;9.23;5.72;;;31.20;63.70;;;;;;10492021;28;20136;-40
2023/09/11 18:34:28;;;;;;;8.25;5.50;;;31.20;63.90;;;;;;10489403;28;20146;-34
2023/09/11 18:39:32;;;;;;;6.88;5.22;;;31.20;63.70;;;;;;10484298;28;20080;-40
2023/09/11 18:44:35;;;;;;;7.93;5.95;;;31.20;63.70;;;;;;10481978;28;20109;-34
2023/09/11 18:49:37;;;;;;;10.90;5.32;;;31.20;63.70;;;;;;10486724;28;20051;-35
2023/09/11 18:54:42;;;;;;;8.60;5.43;;;31.10;63.70;;;;;;10484328;28;20048;-38
2023/09/11 18:59:44;;;;;;;9.73;5.45;;;31.10;63.80;;;;;;10488890;28;20052;-33
2023/09/11 19:04:47;;;;;;;8.98;5.95;;;31.10;64.00;;;;;;10486775;28;20052;-33
2023/09/11 19:09:50;;;;;;;8.90;5.75;;;31.10;64.40;;;;;;10491838;28;20080;-34
2023/09/11 19:14:53;;;;;;;9.05;5.50;;;31.10;64.60;;;;;;10487734;28;20156;-33
2023/09/11 19:19:55;;;;;;;8.27;5.68;;;31.00;63.90;;;;;;10484724;28;20049;-36
2023/09/11 19:24:59;;;;;;;9.57;5.30;;;31.00;63.90;;;;;;10484797;28;20049;-32
2023/09/11 19:30:00;;;;;;;9.77;5.30;;;30.90;63.90;;;;;;10494126;28;20048;-35
2023/09/11 19:35:03;;;;;;;8.32;5.28;;;31.00;64.00;;;;;;10494474;28;20056;-33
2023/09/11 19:40:08;;;;;;;9.50;5.20;;;30.90;64.10;;;;;;10494608;28;20044;-36
2023/09/11 19:45:10;;;;;;;7.03;5.20;;;30.90;64.30;;;;;;10485179;28;20075;-35
2023/09/11 19:50:13;;;;;;;7.38;5.00;;;30.90;64.30;;;;;;10483169;28;20068;-33
2023/09/11 19:55:16;;;;;;;12.30;5.80;;;30.90;64.30;;;;;;10488114;28;20044;-35
2023/09/11 20:00:18;;;;;;;8.77;5.32;;;30.80;64.40;;;;;;10493525;28;20072;-37
2023/09/11 20:05:20;;;;;;;8.13;5.30;;;30.80;64.50;;;;;;10498255;28;20059;-31
2023/09/11 20:10:24;;;;;;;6.78;5.18;;;30.80;64.50;;;;;;10491611;28;20191;-34
2023/09/11 20:15:25;;;;;;;6.70;5.10;;;30.80;64.60;;;;;;10494840;28;20067;-34
2023/09/11 20:20:27;;;;;;;6.70;4.82;;;30.80;65.40;;;;;;10506594;28;20060;-32
2023/09/11 20:25:32;;;;;;;6.15;4.95;;;30.70;64.80;;;;;;10495007;28;20040;-34
2023/09/11 20:30:36;;;;;;;7.28;5.25;;;30.70;65.00;;;;;;10494330;28;20117;-35
2023/09/11 20:35:40;;;;;;;8.70;4.93;;;30.70;65.00;;;;;;10495955;28;20044;-33
2023/09/11 20:40:43;;;;;;;5.28;4.32;;;30.70;65.10;;;;;;10508163;28;20466;-34
2023/09/11 20:45:45;;;;;;;5.15;4.68;;;30.60;65.30;;;;;;10505153;28;20047;-31
2023/09/11 20:50:47;;;;;;;6.00;4.45;;;30.70;65.40;;;;;;10495848;28;22252;-35
2023/09/11 20:55:51;;;;;;;6.18;4.45;;;30.60;65.60;;;;;;10497369;28;20121;-34
2023/09/11 21:00:52;;;;;;;7.82;4.63;;;30.60;65.70;;;;;;10494408;28;20456;-30
2023/09/11 21:05:54;;;;;;;4.55;3.97;;;30.60;65.80;;;;;;10496053;28;20060;-34
2023/09/11 21:10:58;;;;;;;6.30;4.10;;;30.60;65.90;;;;;;10492269;28;20072;-31
2023/09/11 21:16:00;;;;;;;7.75;4.65;;;30.50;66.00;;;;;;10494791;28;20049;-36
2023/09/11 21:21:02;;;;;;;8.52;4.95;;;30.50;66.10;;;;;;10497954;28;20072;-31
2023/09/11 21:26:06;;;;;;;7.40;4.35;;;30.50;66.20;;;;;;10496677;28;20067;-34
2023/09/11 21:31:08;;;;;;;7.75;3.90;;;30.40;66.30;;;;;;10495657;28;20083;-36
2023/09/11 21:36:10;;;;;;;6.78;3.72;;;30.50;66.40;;;;;;10494578;28;20076;-38
2023/09/11 21:41:13;;;;;;;6.47;4.03;;;30.40;66.50;;;;;;10502438;28;20075;-31
2023/09/11 21:46:20;;;;;;;6.60;4.43;;;30.40;66.60;;;;;;10477008;28;20053;-36
2023/09/11 21:51:22;;;;;;;5.55;4.53;;;30.40;66.80;;;;;;10503217;28;20619;-33
2023/09/11 21:56:25;;;;;;;6.70;3.80;;;30.40;66.90;;;;;;10497746;28;20048;-39
2023/09/11 22:01:27;;;;;;;5.85;4.20;;;30.30;66.90;;;;;;10503740;28;20496;-40
2023/09/11 22:06:29;;;;;;;6.65;4.32;;;30.30;67.00;;;;;;10497529;28;20103;-32
2023/09/11 22:11:32;;;;;;;7.45;4.05;;;30.30;67.10;;;;;;10492041;28;20052;-36
2023/09/11 22:16:34;;;;;;;7.00;3.85;;;30.30;67.10;;;;;;10496548;28;20081;-32
2023/09/11 22:21:37;;;;;;;5.72;3.97;;;30.30;67.30;;;;;;10489981;28;20064;-34
2023/09/11 22:26:40;;;;;;;5.15;3.75;;;30.30;67.30;;;;;;10487166;28;20090;-35
2023/09/11 22:31:42;;;;;;;5.82;3.33;;;30.30;67.40;;;;;;10487498;28;20622;-33
2023/09/11 22:36:44;;;;;;;5.30;3.70;;;30.20;67.40;;;;;;10487371;28;20052;-31
2023/09/11 22:41:47;;;;;;;5.22;3.25;;;30.20;67.60;;;;;;10490693;28;20044;-38
2023/09/11 22:46:49;;;;;;;6.43;3.33;;;30.20;67.60;;;;;;10492076;28;20439;-33
2023/09/11 22:51:51;;;;;;;5.53;3.58;;;30.20;67.70;;;;;;10494105;28;20131;-31
2023/09/11 22:56:54;;;;;;;4.72;4.00;;;30.10;67.80;;;;;;10489981;28;20155;-37
2023/09/11 23:01:56;;;;;;;5.28;3.72;;;30.20;67.90;;;;;;10489514;28;20457;-34
2023/09/11 23:06:58;;;;;;;3.88;3.47;;;30.10;68.00;;;;;;10492901;28;20124;-35
2023/09/11 23:12:01;;;;;;;4.22;3.10;;;30.10;68.10;;;;;;10486276;28;20143;-36
2023/09/11 23:17:04;;;;;;;5.60;3.38;;;30.00;68.20;;;;;;10487435;28;20050;-36
2023/09/11 23:22:06;;;;;;;3.75;2.88;;;30.00;68.20;;;;;;10481477;28;20426;-34
2023/09/11 23:27:10;;;;;;;3.92;3.40;;;30.00;68.40;;;;;;10500215;28;20075;-37
2023/09/11 23:32:12;;;;;;;7.95;3.10;;;30.00;68.50;;;;;;10501069;28;20131;-33
2023/09/11 23:37:15;;;;;;;3.50;3.20;;;30.00;68.60;;;;;;10508227;28;20499;-32
2023/09/11 23:42:20;;;;;;;3.53;3.10;;;30.00;68.70;;;;;;10510986;28;20083;-33
2023/09/11 23:47:22;;;;;;;5.13;3.05;;;29.90;68.90;;;;;;10503169;28;20080;-33
2023/09/11 23:52:25;;;;;;;5.57;2.75;;;29.90;69.10;;;;;;10512480;28;20131;-33
2023/09/11 23:57:29;;;;;;;6.07;3.03;;;29.90;69.40;;;;;;10505863;28;20135;-32
